Terminal Aerodrome Forecast
Issued by NWS

Home | Current Version | Previous Version | Text Only | Print | Product List | Glossary On
Versions: 1 2 3 4 5 6 7 8 9 10 11 12
000
FTUS44 KEPZ 242325
TAFDMN
TAF
KDMN 242325Z 2500/2524 25015G22KT P6SM SKC
     FM250300 26006KT P6SM SKC
     FM251600 24015G23KT P6SM SKC
     FM252000 24022G34KT 4SM BLDU SKC=

USA.gov is the U.S. government's official web portal to all federal, state and local government web resources and services.